createdAt,value
2022-11-25T00:00:33.429Z,77.65
2022-11-25T00:02:59.876Z,77.47
2022-11-25T00:05:26.805Z,77.26
2022-11-25T00:07:53.283Z,77.46
2022-11-25T00:10:19.804Z,76.76
2022-11-25T00:12:46.229Z,76.62
2022-11-25T00:15:12.575Z,76.74
2022-11-25T00:17:39.186Z,76.66
2022-11-25T00:20:06.145Z,76.89
2022-11-25T00:22:32.662Z,76.47
2022-11-25T00:24:59.214Z,76.35
2022-11-25T00:27:25.554Z,76.40
2022-11-25T00:29:53.242Z,76.37
2022-11-25T00:32:19.769Z,76.67
2022-11-25T00:34:46.175Z,76.30
2022-11-25T00:37:12.637Z,76.89
2022-11-25T00:39:38.967Z,76.75
2022-11-25T00:42:24.002Z,77.19
2022-11-25T00:44:50.430Z,77.52
2022-11-25T00:47:20.291Z,77.97
2022-11-25T00:49:48.738Z,77.86
2022-11-25T00:52:17.344Z,78.86
2022-11-25T00:54:47.604Z,78.61
2022-11-25T00:57:15.223Z,79.31
2022-11-25T00:59:41.631Z,78.85
2022-11-25T01:02:08.253Z,79.18
2022-11-25T01:04:35.201Z,78.89
2022-11-25T01:07:02.174Z,78.82
2022-11-25T01:09:29.050Z,79.40
2022-11-25T01:11:55.422Z,79.01
2022-11-25T01:14:23.076Z,78.73
2022-11-25T01:16:51.410Z,78.63
2022-11-25T01:19:19.140Z,78.94
2022-11-25T01:21:46.911Z,79.47
2022-11-25T01:24:15.365Z,79.51
2022-11-25T01:26:42.655Z,80.13
2022-11-25T01:29:15.120Z,79.87
2022-11-25T01:31:42.568Z,79.31
2022-11-25T01:34:21.186Z,78.84
2022-11-25T01:36:48.148Z,78.78
2022-11-25T01:39:20.420Z,78.79
2022-11-25T01:41:47.871Z,78.70
2022-11-25T01:44:25.417Z,78.55
2022-11-25T01:47:16.993Z,78.04
2022-11-25T01:49:53.897Z,77.81
2022-11-25T01:52:28.873Z,77.93
2022-11-25T01:55:08.975Z,77.94
2022-11-25T01:57:59.350Z,77.74
2022-11-25T02:00:25.796Z,77.88
2022-11-25T02:02:54.878Z,77.60
2022-11-25T02:05:33.646Z,77.95
2022-11-25T02:08:00.875Z,78.05
2022-11-25T02:10:30.557Z,78.29
2022-11-25T02:12:59.258Z,77.90
2022-11-25T02:15:26.596Z,78.12
2022-11-25T02:17:53.218Z,77.95
2022-11-25T02:20:23.830Z,77.65
2022-11-25T02:23:16.010Z,77.61
2022-11-25T02:25:45.503Z,77.99
2022-11-25T02:28:17.174Z,77.58
2022-11-25T02:30:44.539Z,77.42
2022-11-25T02:33:11.857Z,77.73
2022-11-25T02:35:43.138Z,77.48
2022-11-25T02:38:15.305Z,77.68
2022-11-25T02:40:47.603Z,77.62
2022-11-25T02:43:14.762Z,77.52
2022-11-25T02:46:00.148Z,77.61
2022-11-25T02:48:52.896Z,78.34
2022-11-25T02:51:17.244Z,78.13
2022-11-25T02:53:44.083Z,77.83
2022-11-25T02:56:12.724Z,78.78
2022-11-25T02:58:39.799Z,79.45
2022-11-25T03:01:08.315Z,79.59
2022-11-25T03:03:35.874Z,80.88
2022-11-25T03:06:02.770Z,81.04
2022-11-25T03:08:29.214Z,81.30
2022-11-25T03:10:55.773Z,81.66
2022-11-25T03:13:22.311Z,81.72
2022-11-25T03:15:48.682Z,82.54
2022-11-25T03:18:15.159Z,82.64
2022-11-25T03:20:41.917Z,82.69
2022-11-25T03:23:08.376Z,83.19
2022-11-25T03:25:35.921Z,83.29
2022-11-25T03:28:03.551Z,83.17
2022-11-25T03:30:30.446Z,82.80
2022-11-25T03:32:59.264Z,83.07
2022-11-25T03:35:26.897Z,82.13
2022-11-25T03:37:53.405Z,82.28
2022-11-25T03:40:19.893Z,82.58
2022-11-25T03:42:46.473Z,82.79
2022-11-25T03:45:14.780Z,82.49
2022-11-25T03:47:43.318Z,82.43
2022-11-25T03:50:12.541Z,83.21
2022-11-25T03:52:39.526Z,82.45
2022-11-25T03:55:08.389Z,82.36
2022-11-25T03:57:36.157Z,82.88
2022-11-25T04:00:04.417Z,82.31
2022-11-25T04:02:44.442Z,82.84
2022-11-25T04:05:12.499Z,82.63
2022-11-25T04:07:39.727Z,82.56
2022-11-25T04:10:08.391Z,82.54
2022-11-25T04:12:47.459Z,82.02
2022-11-25T04:15:18.623Z,82.16
2022-11-25T04:17:49.708Z,82.31
2022-11-25T04:20:16.267Z,81.99
2022-11-25T04:22:46.262Z,82.03
2022-11-25T04:25:12.791Z,81.12
2022-11-25T04:27:39.334Z,81.31
2022-11-25T04:30:07.009Z,82.21
2022-11-25T04:32:38.149Z,81.64
2022-11-25T04:35:06.286Z,81.41
2022-11-25T04:37:33.250Z,81.24
2022-11-25T04:39:59.727Z,81.55
2022-11-25T04:42:32.890Z,81.54
2022-11-25T04:47:52.990Z,81.40
2022-11-25T04:50:22.323Z,81.64
2022-11-25T04:52:55.590Z,81.21
2022-11-25T04:55:23.005Z,82.10
2022-11-25T04:57:50.197Z,81.40
2022-11-25T05:00:17.042Z,81.89
2022-11-25T05:02:43.615Z,81.96
2022-11-25T05:05:18.272Z,81.80
2022-11-25T05:07:45.219Z,82.06
2022-11-25T05:10:12.677Z,82.41
2022-11-25T05:12:43.812Z,82.80
2022-11-25T05:15:15.414Z,82.23
2022-11-25T05:17:44.740Z,82.40
2022-11-25T05:20:11.607Z,82.51
2022-11-25T05:22:38.403Z,82.38
2022-11-25T05:25:07.054Z,82.34
2022-11-25T05:27:38.425Z,82.53
2022-11-25T05:30:08.930Z,82.56
2022-11-25T05:32:35.390Z,82.12
2022-11-25T05:35:07.013Z,82.11
2022-11-25T05:37:34.103Z,82.69
2022-11-25T05:40:04.698Z,82.63
2022-11-25T05:42:43.453Z,82.21
2022-11-25T05:45:11.176Z,81.92
2022-11-25T05:47:38.779Z,82.30
2022-11-25T05:50:07.013Z,82.34
2022-11-25T05:52:33.994Z,81.93
2022-11-25T05:55:01.563Z,82.48
2022-11-25T05:57:29.197Z,82.03
2022-11-25T06:00:00.599Z,82.04
2022-11-25T06:02:43.753Z,81.58
2022-11-25T06:05:13.150Z,81.74
2022-11-25T06:07:39.809Z,81.52
2022-11-25T06:10:07.311Z,81.47
2022-11-25T06:12:35.994Z,81.57
2022-11-25T06:15:03.511Z,81.91
2022-11-25T06:17:30.525Z,81.81
2022-11-25T06:20:09.425Z,81.97
2022-11-25T06:22:35.870Z,81.86
2022-11-25T06:25:04.120Z,81.82
2022-11-25T06:27:56.834Z,81.82
2022-11-25T06:30:20.582Z,81.36
2022-11-25T06:33:00.001Z,81.63
2022-11-25T06:35:26.778Z,81.70
2022-11-25T06:37:59.235Z,81.41
2022-11-25T06:40:25.843Z,81.34
2022-11-25T06:42:52.228Z,81.92
2022-11-25T06:45:20.548Z,81.26
2022-11-25T06:47:46.995Z,81.56
2022-11-25T06:50:13.343Z,81.39
2022-11-25T06:52:39.849Z,81.84
2022-11-25T06:55:06.495Z,81.61
2022-11-25T06:57:32.859Z,81.72
2022-11-25T06:59:59.287Z,81.02
2022-11-25T07:02:25.825Z,81.26
2022-11-25T07:04:52.243Z,81.42
2022-11-25T07:07:18.631Z,81.30
2022-11-25T07:09:45.198Z,81.64
2022-11-25T07:12:12.337Z,81.04
2022-11-25T07:14:39.048Z,81.26
2022-11-25T07:17:11.600Z,81.63
2022-11-25T07:19:38.505Z,81.32
2022-11-25T07:22:04.953Z,81.33
2022-11-25T07:24:31.384Z,81.28
2022-11-25T07:26:57.836Z,81.60
2022-11-25T07:32:11.143Z,80.69
2022-11-25T07:34:37.822Z,81.09
2022-11-25T07:37:04.254Z,81.36
2022-11-25T07:39:30.869Z,81.60
2022-11-25T07:41:57.414Z,81.20
2022-11-25T07:44:23.802Z,81.52
2022-11-25T07:47:00.753Z,81.54
2022-11-25T07:49:28.434Z,81.71
2022-11-25T07:51:57.547Z,81.47
2022-11-25T07:54:24.331Z,81.47
2022-11-25T07:56:51.591Z,81.82
2022-11-25T07:59:21.182Z,82.02
2022-11-25T08:01:55.512Z,81.44
2022-11-25T08:04:23.139Z,81.35
2022-11-25T08:06:51.902Z,82.18
2022-11-25T08:09:21.638Z,82.03
2022-11-25T08:11:49.202Z,82.08
2022-11-25T08:14:16.459Z,81.67
2022-11-25T08:16:43.222Z,81.48
2022-11-25T08:19:13.627Z,81.72
2022-11-25T08:21:40.294Z,81.17
2022-11-25T08:24:06.873Z,81.65
2022-11-25T08:26:39.597Z,81.53
2022-11-25T08:29:07.191Z,81.15
2022-11-25T08:31:36.750Z,81.46
2022-11-25T08:34:04.961Z,81.41
2022-11-25T08:36:32.117Z,81.16
2022-11-25T08:39:00.031Z,81.05
2022-11-25T08:41:32.528Z,81.37
2022-11-25T08:44:00.951Z,81.40
2022-11-25T08:46:30.045Z,80.97
2022-11-25T08:48:56.832Z,80.67
2022-11-25T08:51:26.861Z,81.21
2022-11-25T08:53:53.830Z,80.60
2022-11-25T08:56:25.993Z,80.18
2022-11-25T08:58:54.232Z,80.30
2022-11-25T09:01:22.359Z,80.35
2022-11-25T09:03:51.674Z,80.72
2022-11-25T09:06:18.799Z,80.07
2022-11-25T09:08:46.120Z,80.16
2022-11-25T09:11:13.491Z,80.04
2022-11-25T09:13:40.091Z,80.31
2022-11-25T09:16:07.392Z,80.47
2022-11-25T09:18:35.277Z,79.88
2022-11-25T09:21:09.702Z,80.02
2022-11-25T09:23:38.407Z,80.24
2022-11-25T09:26:06.346Z,80.86
2022-11-25T09:28:32.994Z,80.23
2022-11-25T09:30:59.497Z,79.81
2022-11-25T09:33:25.898Z,79.77
2022-11-25T09:35:52.487Z,80.08
2022-11-25T09:38:18.848Z,80.12
2022-11-25T09:40:53.747Z,81.24
2022-11-25T09:44:03.503Z,80.73
2022-11-25T09:46:41.844Z,81.50
2022-11-25T09:49:45.599Z,81.86
2022-11-25T09:52:17.605Z,82.37
2022-11-25T09:55:06.764Z,82.64
2022-11-25T09:57:56.478Z,82.58
2022-11-25T10:00:33.534Z,82.89
2022-11-25T10:03:05.791Z,82.64
2022-11-25T10:05:41.746Z,82.89
2022-11-25T10:08:23.279Z,82.70
2022-11-25T10:11:02.973Z,83.53
2022-11-25T10:13:50.025Z,84.01
2022-11-25T10:16:27.635Z,84.27
2022-11-25T10:19:06.217Z,84.70
2022-11-25T10:21:32.558Z,84.40
2022-11-25T10:23:59.178Z,84.12
2022-11-25T10:26:31.941Z,84.58
2022-11-25T10:29:13.568Z,84.44
2022-11-25T10:31:42.428Z,84.37
2022-11-25T10:34:24.254Z,85.29
2022-11-25T10:36:52.925Z,84.59
2022-11-25T10:39:26.975Z,85.05
2022-11-25T10:42:04.667Z,85.66
2022-11-25T10:44:39.835Z,86.51
2022-11-25T10:47:32.023Z,86.58
2022-11-25T10:50:26.457Z,85.31
2022-11-25T10:53:21.526Z,85.49
2022-11-25T10:56:12.390Z,85.49
2022-11-25T10:58:42.305Z,85.09
2022-11-25T11:01:23.172Z,85.84
2022-11-25T11:04:05.724Z,84.92
2022-11-25T11:06:36.374Z,85.18
2022-11-25T11:09:03.762Z,84.70
2022-11-25T11:11:30.714Z,85.25
2022-11-25T11:14:20.318Z,84.64
2022-11-25T11:16:57.202Z,85.29
2022-11-25T11:19:27.123Z,85.25
2022-11-25T11:21:56.400Z,85.31
2022-11-25T11:24:34.313Z,85.21
2022-11-25T11:27:05.193Z,86.14
2022-11-25T11:29:32.101Z,86.10
2022-11-25T11:32:01.605Z,85.86
2022-11-25T11:34:55.386Z,85.53
2022-11-25T11:37:38.703Z,86.25
2022-11-25T11:40:17.363Z,86.02
2022-11-25T11:42:50.405Z,85.95
2022-11-25T11:45:48.223Z,86.84
2022-11-25T11:48:29.414Z,86.69
2022-11-25T11:51:14.351Z,86.45
2022-11-25T11:53:51.154Z,87.27
2022-11-25T11:56:39.345Z,86.85
2022-11-25T11:59:19.344Z,86.14
2022-11-25T12:02:04.433Z,86.86
2022-11-25T12:04:41.817Z,87.50
2022-11-25T12:07:31.289Z,87.66
2022-11-25T12:10:06.309Z,86.58
2022-11-25T12:12:38.604Z,86.37
2022-11-25T12:15:16.843Z,86.46
2022-11-25T12:17:54.489Z,87.18
2022-11-25T12:20:38.622Z,87.88
2022-11-25T12:23:24.976Z,87.55
2022-11-25T12:25:57.604Z,87.70
2022-11-25T12:28:39.213Z,88.67
2022-11-25T12:31:16.401Z,88.21
2022-11-25T12:34:07.638Z,88.31
2022-11-25T12:36:35.324Z,88.05
2022-11-25T12:39:24.221Z,87.91
2022-11-25T12:41:59.343Z,88.24
2022-11-25T12:44:31.150Z,88.90
2022-11-25T12:46:58.319Z,87.85
2022-11-25T12:49:30.125Z,88.18
2022-11-25T12:52:21.255Z,87.94
2022-11-25T12:55:04.360Z,86.82
2022-11-25T12:57:57.004Z,87.39
2022-11-25T13:01:00.207Z,86.62
2022-11-25T13:04:13.024Z,87.66
2022-11-25T13:07:21.274Z,87.02
2022-11-25T13:10:14.192Z,87.90
2022-11-25T13:12:57.841Z,86.56
2022-11-25T13:15:38.047Z,87.70
2022-11-25T13:18:14.233Z,87.55
2022-11-25T13:20:47.147Z,87.95
2022-11-25T13:23:16.752Z,88.72
2022-11-25T13:25:46.797Z,88.79
2022-11-25T13:28:32.864Z,88.95
2022-11-25T13:31:21.381Z,88.89
2022-11-25T13:33:47.843Z,88.61
2022-11-25T13:36:20.062Z,89.96
2022-11-25T13:38:49.803Z,89.31
2022-11-25T13:41:16.099Z,89.32
2022-11-25T13:44:01.784Z,89.48
2022-11-25T13:46:45.365Z,89.56
2022-11-25T13:49:37.523Z,89.91
2022-11-25T13:52:12.951Z,89.41
2022-11-25T13:54:45.969Z,89.42
2022-11-25T13:57:12.231Z,90.52
2022-11-25T14:00:01.021Z,90.34
2022-11-25T14:02:27.689Z,89.62
2022-11-25T14:05:06.682Z,89.88
2022-11-25T14:07:58.203Z,90.51
2022-11-25T14:10:41.473Z,90.00
2022-11-25T14:13:35.968Z,90.10
2022-11-25T14:16:43.511Z,89.95
2022-11-25T14:19:43.211Z,89.46
2022-11-25T14:22:09.708Z,89.20
2022-11-25T14:24:36.030Z,89.73
2022-11-25T14:27:04.465Z,89.26
2022-11-25T14:29:40.433Z,89.90
2022-11-25T14:32:22.687Z,89.99
2022-11-25T14:34:59.641Z,89.48
2022-11-25T14:37:42.458Z,89.66
2022-11-25T14:40:21.080Z,90.25
2022-11-25T14:42:51.975Z,89.95
2022-11-25T14:45:30.954Z,90.03
2022-11-25T14:47:57.553Z,90.41
2022-11-25T14:50:34.728Z,90.53
2022-11-25T14:53:06.561Z,90.46
2022-11-25T14:55:32.967Z,90.50
2022-11-25T14:57:59.602Z,90.03
2022-11-25T15:00:26.277Z,90.99
2022-11-25T15:03:01.359Z,91.05
2022-11-25T15:05:37.918Z,90.83
2022-11-25T15:08:13.138Z,91.07
2022-11-25T15:10:51.336Z,91.23
2022-11-25T15:13:32.662Z,91.22
2022-11-25T15:16:08.246Z,90.72
2022-11-25T15:18:35.586Z,90.93
2022-11-25T15:21:03.089Z,91.71
2022-11-25T15:23:34.512Z,90.83
2022-11-25T15:26:02.250Z,91.18
2022-11-25T15:28:36.476Z,91.12
2022-11-25T15:31:12.561Z,91.82
2022-11-25T15:33:40.343Z,91.78
2022-11-25T15:36:06.964Z,91.94
2022-11-25T15:38:37.265Z,91.71
2022-11-25T15:41:05.527Z,91.32
2022-11-25T15:43:44.571Z,91.46
2022-11-25T15:46:11.100Z,92.47
2022-11-25T15:48:47.211Z,91.92
2022-11-25T15:51:20.037Z,91.88
2022-11-25T15:53:53.306Z,91.70
2022-11-25T15:56:23.412Z,91.62
2022-11-25T15:58:50.009Z,91.58
2022-11-25T16:01:17.100Z,91.13
2022-11-25T16:03:44.927Z,91.92
2022-11-25T16:06:19.425Z,91.66
2022-11-25T16:09:00.836Z,92.00
2022-11-25T16:11:33.051Z,91.04
2022-11-25T16:14:30.739Z,91.53
2022-11-25T16:17:02.798Z,91.95
2022-11-25T16:19:38.500Z,91.35
2022-11-25T16:22:05.640Z,91.56
2022-11-25T16:24:48.787Z,92.92
2022-11-25T16:27:25.597Z,92.09
2022-11-25T16:29:57.808Z,92.10
2022-11-25T16:32:26.951Z,92.44
2022-11-25T16:34:56.708Z,92.56
2022-11-25T16:37:23.857Z,92.05
2022-11-25T16:39:50.197Z,92.03
2022-11-25T16:42:21.850Z,92.23
2022-11-25T16:44:50.878Z,92.12
2022-11-25T16:47:20.057Z,93.24
2022-11-25T16:49:46.928Z,92.50
2022-11-25T16:52:14.164Z,92.54
2022-11-25T16:54:41.811Z,92.76
2022-11-25T16:57:16.101Z,91.62
2022-11-25T16:59:44.529Z,91.49
2022-11-25T17:02:18.503Z,92.02
2022-11-25T17:04:46.166Z,92.60
2022-11-25T17:07:32.859Z,92.09
2022-11-25T17:09:59.834Z,92.14
2022-11-25T17:12:30.362Z,92.10
2022-11-25T17:14:59.698Z,91.63
2022-11-25T17:17:27.007Z,91.78
2022-11-25T17:19:53.747Z,91.55
2022-11-25T17:22:22.963Z,91.20
2022-11-25T17:24:49.350Z,91.59
2022-11-25T17:27:33.846Z,91.40
2022-11-25T17:30:03.953Z,90.88
2022-11-25T17:32:31.202Z,91.04
2022-11-25T17:34:57.606Z,91.51
2022-11-25T17:37:25.464Z,91.19
2022-11-25T17:39:53.412Z,91.49
2022-11-25T17:42:26.520Z,91.52
2022-11-25T17:44:54.357Z,91.11
2022-11-25T17:47:21.091Z,91.17
2022-11-25T17:49:48.199Z,91.56
2022-11-25T17:52:14.586Z,91.74
2022-11-25T17:54:41.752Z,91.89
2022-11-25T17:57:14.089Z,91.19
2022-11-25T17:59:40.981Z,91.52
2022-11-25T18:02:18.933Z,90.38
2022-11-25T18:04:45.728Z,90.30
2022-11-25T18:07:12.155Z,91.67
2022-11-25T18:09:38.651Z,90.22
2022-11-25T18:12:10.588Z,91.00
2022-11-25T18:14:37.982Z,91.47
2022-11-25T18:17:07.475Z,91.57
2022-11-25T18:19:34.653Z,91.39
2022-11-25T18:22:10.808Z,90.89
2022-11-25T18:24:37.549Z,92.63
2022-11-25T18:27:05.801Z,93.19
2022-11-25T18:29:32.492Z,93.47
2022-11-25T18:31:59.607Z,92.52
2022-11-25T18:34:26.745Z,92.73
2022-11-25T18:36:53.650Z,93.59
2022-11-25T18:39:20.467Z,92.85
2022-11-25T18:41:47.877Z,93.21
2022-11-25T18:44:37.821Z,93.64
2022-11-25T18:47:05.455Z,93.58
2022-11-25T18:49:31.862Z,93.37
2022-11-25T18:51:58.239Z,93.40
2022-11-25T18:54:24.634Z,93.91
2022-11-25T18:56:52.099Z,93.89
2022-11-25T18:59:26.767Z,93.11
2022-11-25T19:01:54.253Z,93.42
2022-11-25T19:04:20.658Z,93.82
2022-11-25T19:06:47.081Z,92.58
2022-11-25T19:09:13.547Z,93.52
2022-11-25T19:11:45.592Z,93.97
2022-11-25T19:14:23.603Z,93.62
2022-11-25T19:16:50.138Z,93.23
2022-11-25T19:19:16.898Z,94.33
2022-11-25T19:21:43.562Z,94.83
2022-11-25T19:24:13.158Z,95.45
2022-11-25T19:26:52.197Z,95.27
2022-11-25T19:29:42.304Z,95.77
2022-11-25T19:32:26.234Z,96.00
2022-11-25T19:35:03.348Z,96.42
2022-11-25T19:37:32.840Z,96.47
2022-11-25T19:39:59.187Z,96.86
2022-11-25T19:42:25.812Z,97.95
2022-11-25T19:44:52.902Z,97.36
2022-11-25T19:47:22.024Z,98.56
2022-11-25T19:49:50.961Z,97.75
2022-11-25T19:52:20.577Z,98.87
2022-11-25T19:54:47.543Z,98.97
2022-11-25T19:57:20.470Z,98.59
2022-11-25T19:59:47.671Z,98.43
2022-11-25T20:02:22.646Z,98.92
2022-11-25T20:04:52.430Z,98.83
2022-11-25T20:07:20.291Z,99.05
2022-11-25T20:09:47.527Z,99.15
2022-11-25T20:12:23.739Z,99.74
2022-11-25T20:14:50.766Z,99.08
2022-11-25T20:17:29.524Z,98.31
2022-11-25T20:19:59.972Z,99.12
2022-11-25T20:22:32.432Z,99.14
2022-11-25T20:25:02.258Z,98.50
2022-11-25T20:27:29.285Z,98.32
2022-11-25T20:29:55.855Z,98.92
2022-11-25T20:32:28.000Z,98.85
2022-11-25T20:34:58.272Z,98.02
2022-11-25T20:37:26.302Z,98.60
2022-11-25T20:39:55.901Z,98.36
2022-11-25T20:42:23.095Z,97.52
2022-11-25T20:44:52.121Z,98.21
2022-11-25T20:47:24.424Z,98.60
2022-11-25T20:49:50.781Z,98.37
2022-11-25T20:52:26.718Z,98.39
2022-11-25T20:54:53.070Z,98.09
2022-11-25T20:57:19.399Z,98.39
2022-11-25T20:59:46.086Z,97.77
2022-11-25T21:02:12.545Z,97.71
2022-11-25T21:04:39.287Z,98.24
2022-11-25T21:07:07.013Z,97.54
2022-11-25T21:09:35.699Z,97.70
2022-11-25T21:12:03.181Z,97.45
2022-11-25T21:14:30.055Z,98.03
2022-11-25T21:16:56.502Z,97.61
2022-11-25T21:19:22.967Z,97.78
2022-11-25T21:21:50.732Z,98.00
2022-11-25T21:24:28.776Z,96.88
2022-11-25T21:26:56.854Z,97.16
2022-11-25T21:29:23.339Z,96.88
2022-11-25T21:31:49.740Z,96.79
2022-11-25T21:34:16.206Z,97.49
2022-11-25T21:36:45.207Z,97.12
2022-11-25T21:39:26.778Z,97.50
2022-11-25T21:41:54.222Z,96.81
2022-11-25T21:44:32.798Z,97.46
2022-11-25T21:46:59.222Z,97.03
2022-11-25T21:49:26.482Z,97.03
2022-11-25T21:51:52.942Z,96.67
2022-11-25T21:54:19.427Z,96.43
2022-11-25T21:56:46.226Z,96.55
2022-11-25T21:59:18.659Z,96.48
2022-11-25T22:01:47.066Z,96.28
2022-11-25T22:04:19.502Z,97.20
2022-11-25T22:06:46.879Z,96.93
2022-11-25T22:09:14.085Z,96.74
2022-11-25T22:11:47.564Z,96.87
2022-11-25T22:14:27.707Z,97.44
2022-11-25T22:16:55.966Z,96.35
2022-11-25T22:19:25.932Z,96.02
2022-11-25T22:21:52.440Z,96.82
2022-11-25T22:24:19.987Z,96.19
2022-11-25T22:26:51.275Z,96.99
2022-11-25T22:29:22.552Z,96.90
2022-11-25T22:31:49.753Z,96.29
2022-11-25T22:34:21.893Z,95.53
2022-11-25T22:36:49.299Z,95.38
2022-11-25T22:39:21.330Z,95.80
2022-11-25T22:41:50.728Z,95.43
2022-11-25T22:44:45.768Z,95.45
2022-11-25T22:47:39.089Z,95.05
2022-11-25T22:50:16.805Z,94.60
2022-11-25T22:52:43.161Z,94.77
2022-11-25T22:55:27.783Z,94.44
2022-11-25T22:57:56.388Z,94.90
2022-11-25T23:00:28.782Z,94.43
2022-11-25T23:02:57.118Z,93.99
2022-11-25T23:05:33.302Z,94.00
2022-11-25T23:08:02.460Z,93.96
2022-11-25T23:10:30.879Z,93.73
2022-11-25T23:12:57.247Z,93.58
2022-11-25T23:15:24.652Z,93.05
2022-11-25T23:17:54.857Z,93.16
2022-11-25T23:20:26.738Z,92.83
2022-11-25T23:22:53.398Z,92.84
2022-11-25T23:25:21.667Z,92.72
2022-11-25T23:27:48.083Z,92.91
2022-11-25T23:30:20.405Z,92.02
2022-11-25T23:32:50.070Z,91.60
2022-11-25T23:35:18.801Z,92.10
2022-11-25T23:37:50.311Z,91.29
2022-11-25T23:40:21.340Z,92.35
2022-11-25T23:42:48.194Z,91.82
2022-11-25T23:45:17.103Z,90.78
2022-11-25T23:47:46.338Z,90.79
2022-11-25T23:50:26.734Z,90.89
2022-11-25T23:52:57.993Z,91.50
2022-11-25T23:55:28.782Z,91.66
2022-11-25T23:57:55.671Z,91.87
